createdAt,value
2019-03-23T00:00:50.828Z,95409.10
2019-03-23T00:15:50.652Z,95391.78
2019-03-23T00:30:50.721Z,95384.43
2019-03-23T00:45:50.599Z,95376.54
2019-03-23T01:00:51.442Z,95367.32
2019-03-23T01:15:51.341Z,95352.08
2019-03-23T01:30:51.307Z,95339.48
2019-03-23T01:45:51.307Z,95328.70
2019-03-23T02:00:50.585Z,95306.87
2019-03-23T02:15:50.533Z,95284.14
2019-03-23T02:30:50.570Z,95293.25
2019-03-23T02:45:51.490Z,95315.16
2019-03-23T03:00:56.699Z,95308.56
2019-03-23T03:15:50.996Z,95312.05
2019-03-23T03:30:53.450Z,95324.34
2019-03-23T03:45:51.413Z,95341.80
2019-03-23T04:15:50.913Z,95336.90
2019-03-23T04:30:51.376Z,95334.59
2019-03-23T04:45:50.792Z,95333.12
2019-03-23T05:00:51.180Z,95334.09
2019-03-23T05:15:51.286Z,95330.42
2019-03-23T05:30:51.327Z,95363.06
2019-03-23T05:45:51.282Z,95362.44
2019-03-23T06:00:51.228Z,95355.89
2019-03-23T06:15:50.825Z,95343.44
2019-03-23T06:30:52.490Z,95323.30
2019-03-23T06:45:51.902Z,95310.00
2019-03-23T07:00:51.441Z,95326.41
2019-03-23T07:15:53.418Z,95317.17
2019-03-23T07:30:50.768Z,95306.20
2019-03-23T07:45:50.696Z,95298.75
2019-03-23T08:00:50.730Z,95283.98
2019-03-23T08:15:50.958Z,95287.95
2019-03-23T08:30:50.877Z,95265.21
2019-03-23T08:45:50.913Z,95250.61
2019-03-23T09:00:50.911Z,95237.06
2019-03-23T09:15:51.253Z,95210.20
2019-03-23T09:30:51.110Z,95222.50
2019-03-23T09:45:51.085Z,95209.17
2019-03-23T10:00:51.069Z,95184.70
2019-03-23T10:15:51.343Z,95183.10
2019-03-23T10:30:51.321Z,95172.38
2019-03-23T10:45:51.363Z,95150.59
2019-03-23T11:00:53.361Z,95135.66
2019-03-23T11:15:50.676Z,95110.56
2019-03-23T11:30:50.515Z,95089.15
2019-03-23T11:45:50.193Z,95071.98
2019-03-23T12:00:50.600Z,95051.20
2019-03-23T12:15:50.911Z,95019.94
2019-03-23T12:30:50.901Z,94998.93
2019-03-23T12:45:50.880Z,94993.00
2019-03-23T13:00:50.899Z,94977.75
2019-03-23T13:15:51.287Z,94949.07
2019-03-23T13:30:51.412Z,94932.27
2019-03-23T13:45:51.177Z,94920.22
2019-03-23T14:00:51.082Z,94902.62
2019-03-23T14:15:51.415Z,94895.05
2019-03-23T14:30:54.423Z,94887.73
2019-03-23T14:45:58.876Z,94885.55
2019-03-23T15:00:51.757Z,94879.86
2019-03-23T15:15:50.886Z,94868.97
2019-03-23T15:30:51.438Z,94883.70
2019-03-23T15:45:54.697Z,94890.80
2019-03-23T16:15:54.159Z,94900.41
2019-03-23T16:30:51.284Z,94913.78
2019-03-23T16:45:55.521Z,94933.03
2019-03-23T17:00:57.244Z,94923.08
2019-03-23T17:30:54.518Z,94950.11
2019-03-23T17:45:51.458Z,94966.04
2019-03-23T18:00:54.611Z,94974.92
2019-03-23T18:15:51.345Z,94985.66
2019-03-23T18:30:51.772Z,94986.45
2019-03-23T18:45:53.796Z,94983.42
2019-03-23T19:00:53.653Z,94993.01
2019-03-23T19:30:56.724Z,95009.53
2019-03-23T19:45:52.375Z,95025.33
2019-03-23T20:00:50.942Z,95029.84
2019-03-23T20:15:50.858Z,95033.84
2019-03-23T20:30:59.619Z,95032.76
2019-03-23T20:45:50.576Z,95042.38
2019-03-23T21:00:49.993Z,95044.36
2019-03-23T21:15:51.130Z,95048.08
2019-03-23T21:30:57.237Z,95048.42
2019-03-23T21:45:51.112Z,95043.32
2019-03-23T22:00:51.013Z,95050.83
2019-03-23T22:15:57.084Z,95060.70
2019-03-23T22:30:52.956Z,95070.88
2019-03-23T22:45:50.923Z,95089.23
2019-03-23T23:00:51.261Z,95102.06
2019-03-23T23:15:51.277Z,95107.89
2019-03-23T23:30:54.131Z,95102.52
2019-03-23T23:45:57.169Z,95081.74
